Time;durP1;ratioP1;P1;durP2;ratioP2;P2;SDS_P1;SDS_P2;PMS_P1;PMS_P2;Temp;Humidity;BMP_temperature;BMP_pressure;BME280_temperature;BME280_humidity;BME280_pressure;Samples;Min_cycle;Max_cycle;Signal;HPM_P1;HPM_P2
2024/01/09 00:01:01;;;;;;;4.50;2.85;;;0.00;88.80;;;;;;5049077;28;20047;-74
2024/01/09 00:03:27;;;;;;;;;;;0.70;89.70;;;;;;5049895;28;20025;-74
2024/01/09 00:05:53;;;;;;;8.45;3.45;;;0.10;99.90;;;;;;5050034;28;20262;-74
2024/01/09 00:08:18;;;;;;;6.13;3.05;;;0.00;96.60;;;;;;5049290;28;20516;-74
2024/01/09 00:10:44;;;;;;;5.05;1.88;;;;;;;;;;5048624;28;20031;-74
2024/01/09 00:13:10;;;;;;;4.63;2.63;;;;;;;;;;5049117;28;20032;-75
2024/01/09 00:15:36;;;;;;;5.80;3.22;;;;;;;;;;5049138;28;20036;-73
2024/01/09 00:18:02;;;;;;;2.88;2.03;;;;;;;;;;5044658;28;20025;-74
2024/01/09 00:20:28;;;;;;;5.65;3.28;;;;;;;;;;5048719;28;20393;-74
2024/01/09 00:22:54;;;;;;;3.63;2.72;;;;;;;;;;5047607;28;20028;-74
2024/01/09 00:25:20;;;;;;;9.68;2.70;;;;;;;;;;5049163;28;20024;-74
2024/01/09 00:27:46;;;;;;;4.45;2.97;;;;;;;;;;5048977;28;20175;-74
2024/01/09 00:30:13;;;;;;;5.97;2.80;;;0.00;89.00;;;;;;5048614;28;20041;-74
2024/01/09 00:32:38;;;;;;;4.90;2.35;;;0.00;94.30;;;;;;5049317;28;20021;-75
2024/01/09 00:35:05;;;;;;;5.50;4.13;;;0.20;89.30;;;;;;5037369;28;20024;-74
2024/01/09 00:37:31;;;;;;;8.98;4.53;;;0.10;99.90;;;;;;5048396;28;20465;-74
2024/01/09 00:39:57;;;;;;;4.35;2.22;;;;;;;;;;5049482;28;20041;-74
2024/01/09 00:42:22;;;;;;;12.23;4.78;;;0.00;99.90;;;;;;5049183;28;20028;-74
2024/01/09 00:44:48;;;;;;;10.38;2.97;;;;;;;;;;5048604;28;20486;-74
2024/01/09 00:47:15;;;;;;;5.45;2.88;;;0.10;92.20;;;;;;5048470;28;20021;-74
2024/01/09 00:49:41;;;;;;;3.72;2.97;;;;;;;;;;5049004;28;20037;-74
2024/01/09 00:52:06;;;;;;;10.48;2.65;;;0.00;98.10;;;;;;5048392;28;20534;-74
2024/01/09 00:54:32;;;;;;;12.50;3.50;;;;;;;;;;5048612;28;20111;-74
2024/01/09 00:56:58;;;;;;;11.18;4.25;;;;;;;;;;5047952;28;20056;-75
2024/01/09 00:59:24;;;;;;;5.43;3.17;;;;;;;;;;5048467;28;20033;-74
2024/01/09 01:01:50;;;;;;;5.28;3.22;;;;;;;;;;5048185;28;20121;-74
2024/01/09 01:04:17;;;;;;;5.97;2.53;;;0.00;89.50;;;;;;5048843;28;20032;-74
2024/01/09 01:06:44;;;;;;;5.97;3.60;;;0.00;98.20;;;;;;5048117;28;20049;-73
2024/01/09 01:09:09;;;;;;;3.33;2.65;;;0.10;99.90;;;;;;5048262;28;20025;-74
2024/01/09 01:11:35;;;;;;;5.50;3.53;;;-0.10;99.90;;;;;;5047020;28;20032;-74
2024/01/09 01:14:02;;;;;;;7.55;3.50;;;;;;;;;;5048178;28;20436;-74
2024/01/09 01:16:28;;;;;;;12.02;4.20;;;;;;;;;;5048624;28;20017;-75
2024/01/09 01:18:54;;;;;;;8.82;3.88;;;;;;;;;;5048521;28;20573;-74
2024/01/09 01:21:20;;;;;;;5.10;4.18;;;0.30;94.90;;;;;;5055117;28;20021;-74
2024/01/09 01:23:46;;;;;;;10.07;3.08;;;;;;;;;;5048378;28;20104;-74
2024/01/09 01:26:12;;;;;;;5.22;2.50;;;;;;;;;;5050495;28;20020;-74
2024/01/09 01:28:37;;;;;;;10.43;4.38;;;0.20;99.90;;;;;;5046940;28;20045;-74
2024/01/09 01:31:03;;;;;;;5.57;4.63;;;;;;;;;;5048105;28;20021;-75
2024/01/09 01:33:29;;;;;;;7.10;3.65;;;0.30;88.90;;;;;;5048224;28;20107;-75
2024/01/09 01:35:55;;;;;;;9.75;5.63;;;0.30;99.90;;;;;;5047922;28;20105;-74
2024/01/09 01:38:21;;;;;;;7.18;3.95;;;;;;;;;;5048626;28;20111;-74
2024/01/09 01:40:47;;;;;;;3.40;3.10;;;;;;;;;;5048445;28;20029;-74
2024/01/09 01:43:13;;;;;;;6.90;3.10;;;;;;;;;;5048623;28;20444;-74
2024/01/09 01:45:39;;;;;;;6.25;4.10;;;0.10;99.90;;;;;;5047728;28;20032;-74
2024/01/09 01:48:05;;;;;;;4.03;2.90;;;0.40;99.90;;;;;;5048191;28;20048;-75
2024/01/09 01:50:31;;;;;;;5.60;3.47;;;;;;;;;;5047844;28;20086;-74
2024/01/09 01:52:59;;;;;;;5.88;3.72;;;0.30;88.70;;;;;;5063969;28;20128;-74
2024/01/09 01:55:26;;;;;;;4.55;3.22;;;0.30;99.90;;;;;;5040889;28;20029;-75
2024/01/09 01:57:53;;;;;;;4.13;2.65;;;;;;;;;;5047675;28;20025;-73
2024/01/09 02:00:20;;;;;;;;;;;0.30;87.80;;;;;;5051419;28;20410;-73
2024/01/09 02:02:48;;;;;;;2.45;1.70;;;0.30;99.90;;;;;;5051717;28;19912;-72
2024/01/09 02:05:15;;;;;;;4.90;4.40;;;0.30;88.50;;;;;;5050622;28;20695;-73
2024/01/09 02:12:53;;;;;;;4.70;3.63;;;;;;;;;;5199450;22;20090;-81
2024/01/09 02:15:19;;;;;;;7.22;3.75;;;;;;;;;;4980805;28;20033;-81
2024/01/09 02:17:45;;;;;;;11.00;3.25;;;;;;;;;;4986958;28;20110;-81
2024/01/09 02:20:11;;;;;;;9.18;3.58;;;;;;;;;;4991954;28;20022;-81
2024/01/09 02:22:37;;;;;;;7.57;3.92;;;;;;;;;;4993261;28;20045;-82
2024/01/09 02:25:04;;;;;;;9.13;3.90;;;;;;;;;;4992346;28;20026;-82
2024/01/09 02:27:55;;;;;;;8.40;5.00;;;0.20;88.70;;;;;;4992813;28;20041;-81
2024/01/09 02:30:21;;;;;;;3.92;2.70;;;;;;;;;;4992965;28;20050;-81
2024/01/09 02:32:47;;;;;;;4.97;2.88;;;;;;;;;;4992729;28;20054;-82
2024/01/09 02:35:13;;;;;;;5.88;4.57;;;;;;;;;;4993476;28;20442;-81
2024/01/09 02:37:39;;;;;;;6.28;4.05;;;;;;;;;;4993106;28;20022;-81
2024/01/09 02:40:07;;;;;;;7.45;3.42;;;0.10;90.00;;;;;;4993408;28;20011;-81
2024/01/09 02:42:33;;;;;;;10.35;3.72;;;-0.80;88.10;;;;;;4992836;28;20073;-81
2024/01/09 02:44:59;;;;;;;3.03;2.75;;;;;;;;;;4992459;28;20541;-81
2024/01/09 02:47:26;;;;;;;3.85;3.17;;;;;;;;;;4990390;28;20038;-81
2024/01/09 02:49:52;;;;;;;8.70;4.15;;;;;;;;;;4990305;28;20056;-81
2024/01/09 02:52:18;;;;;;;4.45;3.70;;;;;;;;;;4993349;28;20554;-81
2024/01/09 02:54:44;;;;;;;4.90;3.38;;;0.20;88.70;;;;;;4990321;28;20557;-81
2024/01/09 02:57:11;;;;;;;10.03;4.03;;;;;;;;;;4992976;28;20409;-81
2024/01/09 02:59:38;;;;;;;5.10;3.05;;;;;;;;;;4992656;28;20359;-81
2024/01/09 03:02:04;;;;;;;4.57;3.35;;;;;;;;;;4993146;28;20087;-81
2024/01/09 03:04:30;;;;;;;6.30;3.83;;;-0.10;99.90;;;;;;4992585;28;20033;-81
2024/01/09 03:06:56;;;;;;;8.10;3.83;;;;;;;;;;4992616;28;20023;-81
2024/01/09 03:09:22;;;;;;;4.63;3.60;;;;;;;;;;4991921;28;20034;-81
2024/01/09 03:11:48;;;;;;;6.68;4.00;;;;;;;;;;4991894;28;20046;-81
2024/01/09 03:14:14;;;;;;;4.82;3.17;;;;;;;;;;4989817;28;20546;-83
2024/01/09 03:16:40;;;;;;;6.93;3.92;;;0.30;99.90;;;;;;4992579;28;20584;-81
2024/01/09 03:19:05;;;;;;;8.50;4.47;;;0.30;99.90;;;;;;4992684;28;20022;-81
2024/01/09 03:21:31;;;;;;;7.95;3.28;;;0.30;97.60;;;;;;4992693;28;20038;-81
2024/01/09 03:23:57;;;;;;;7.05;4.28;;;;;;;;;;4991494;28;20022;-81
2024/01/09 03:26:23;;;;;;;5.72;3.78;;;;;;;;;;4990776;28;20023;-81
2024/01/09 03:28:49;;;;;;;7.55;4.25;;;;;;;;;;4989060;28;20023;-81
2024/01/09 03:31:22;;;;;;;6.70;3.13;;;0.20;88.80;;;;;;4992399;28;20034;-81
2024/01/09 03:33:48;;;;;;;5.40;4.00;;;;;;;;;;4992183;28;20019;-81
2024/01/09 03:36:15;;;;;;;5.75;4.47;;;0.00;99.90;;;;;;4992060;28;20030;-81
2024/01/09 03:38:41;;;;;;;4.10;2.53;;;;;;;;;;4991885;28;20054;-82
2024/01/09 03:41:07;;;;;;;6.97;3.70;;;;;;;;;;4991993;28;20495;-82
2024/01/09 03:43:33;;;;;;;9.88;6.03;;;;;;;;;;4991748;28;20272;-82
2024/01/09 03:45:59;;;;;;;6.22;4.88;;;;;;;;;;4991725;28;20033;-81
2024/01/09 03:48:25;;;;;;;2.92;2.33;;;;;;;;;;4991315;28;20495;-82
2024/01/09 03:50:51;;;;;;;11.77;3.70;;;;;;;;;;4992263;28;20038;-81
2024/01/09 03:53:17;;;;;;;7.78;4.80;;;;;;;;;;4991484;28;20030;-81
2024/01/09 03:55:43;;;;;;;5.07;3.75;;;0.30;93.70;;;;;;4991495;28;20105;-81
2024/01/09 03:58:11;;;;;;;12.80;4.82;;;;;;;;;;4991467;28;20129;-81
2024/01/09 04:00:37;;;;;;;10.63;4.18;;;0.30;99.90;;;;;;4991684;28;20505;-81
2024/01/09 04:03:04;;;;;;;8.25;4.95;;;0.00;93.30;;;;;;4991944;28;20022;-81
2024/01/09 04:05:29;;;;;;;7.93;3.63;;;0.30;99.90;;;;;;4992287;28;20034;-81
2024/01/09 04:07:55;;;;;;;8.55;5.05;;;0.20;93.50;;;;;;4991516;28;20114;-81
2024/01/09 04:10:21;;;;;;;5.45;3.15;;;;;;;;;;4991325;28;20080;-82
2024/01/09 04:12:47;;;;;;;7.97;3.42;;;;;;;;;;4990405;28;20137;-82
2024/01/09 04:15:13;;;;;;;10.27;4.15;;;;;;;;;;4991618;28;20065;-82
2024/01/09 04:17:39;;;;;;;7.47;2.83;;;;;;;;;;4991048;28;20042;-81
2024/01/09 04:20:05;;;;;;;5.45;4.13;;;;;;;;;;4989737;28;20105;-83
2024/01/09 04:22:31;;;;;;;9.95;4.60;;;;;;;;;;4990515;28;20019;-83
2024/01/09 04:24:57;;;;;;;6.13;3.90;;;;;;;;;;4990879;28;20022;-81
2024/01/09 04:27:23;;;;;;;15.43;4.78;;;;;;;;;;4988597;28;20069;-81
2024/01/09 04:29:49;;;;;;;9.73;4.82;;;;;;;;;;4991394;28;20038;-82
2024/01/09 04:32:15;;;;;;;9.50;6.03;;;;;;;;;;4990789;28;20541;-81
2024/01/09 04:34:43;;;;;;;6.13;5.00;;;;;;;;;;4990158;28;20070;-81
2024/01/09 04:37:09;;;;;;;7.72;4.32;;;;;;;;;;4979374;28;20022;-81
2024/01/09 04:39:35;;;;;;;6.68;3.90;;;;;;;;;;4990939;28;20030;-82
2024/01/09 04:42:00;;;;;;;11.18;5.07;;;0.00;99.90;;;;;;4990596;28;20034;-81
2024/01/09 04:44:26;;;;;;;7.70;4.28;;;;;;;;;;4991107;28;20026;-81
2024/01/09 04:46:52;;;;;;;8.30;5.47;;;;;;;;;;4990624;28;20060;-81
2024/01/09 04:49:18;;;;;;;10.65;4.32;;;0.20;93.60;;;;;;4990607;28;20301;-81
2024/01/09 04:51:44;;;;;;;5.10;3.13;;;;;;;;;;4990407;28;20068;-81
2024/01/09 04:54:11;;;;;;;4.45;3.60;;;0.20;99.90;;;;;;4990133;28;20021;-81
2024/01/09 04:56:37;;;;;;;4.53;2.70;;;;;;;;;;4978737;28;20374;-81
2024/01/09 04:59:03;;;;;;;9.48;2.67;;;;;;;;;;4991189;28;20026;-81
2024/01/09 05:01:29;;;;;;;8.95;5.53;;;;;;;;;;4990275;28;20026;-81
2024/01/09 05:03:55;;;;;;;5.78;3.83;;;;;;;;;;4990430;28;20022;-81
2024/01/09 05:06:21;;;;;;;5.65;3.08;;;0.30;97.50;;;;;;4990856;28;20041;-81
2024/01/09 05:08:48;;;;;;;3.70;3.28;;;;;;;;;;4984585;28;20034;-81
2024/01/09 05:11:16;;;;;;;11.93;4.55;;;0.20;90.20;;;;;;4988371;28;20101;-82
2024/01/09 05:13:42;;;;;;;11.20;4.30;;;;;;;;;;4989974;28;20491;-81
2024/01/09 05:16:08;;;;;;;8.48;4.50;;;;;;;;;;4988053;28;20093;-82
2024/01/09 05:18:34;;;;;;;7.00;4.15;;;;;;;;;;4990475;28;20057;-81
2024/01/09 05:21:00;;;;;;;11.73;4.22;;;;;;;;;;4977268;28;20109;-82
2024/01/09 05:23:26;;;;;;;9.32;4.90;;;;;;;;;;4989907;28;20093;-82
2024/01/09 05:25:52;;;;;;;6.82;4.78;;;;;;;;;;4990038;28;20034;-81
2024/01/09 05:28:18;;;;;;;13.95;6.25;;;;;;;;;;4990466;28;20138;-82
2024/01/09 05:30:44;;;;;;;11.38;4.55;;;0.30;99.90;;;;;;4989659;28;20513;-82
2024/01/09 05:33:10;;;;;;;5.28;3.95;;;;;;;;;;4987663;28;20018;-82
2024/01/09 05:35:36;;;;;;;10.90;4.07;;;;;;;;;;4989636;28;20069;-82
2024/01/09 05:38:02;;;;;;;6.18;4.30;;;;;;;;;;4990371;28;20018;-81
2024/01/09 05:40:28;;;;;;;6.90;2.90;;;;;;;;;;4989147;28;20034;-81
2024/01/09 05:42:54;;;;;;;8.27;4.70;;;;;;;;;;4989851;28;20563;-81
2024/01/09 05:45:20;;;;;;;5.63;3.90;;;;;;;;;;4987910;28;20030;-81
2024/01/09 05:47:46;;;;;;;9.20;5.50;;;-0.10;99.90;;;;;;4990335;28;20030;-82
2024/01/09 05:50:11;;;;;;;11.82;5.75;;;0.10;99.90;;;;;;4989375;28;20149;-82
2024/01/09 05:52:38;;;;;;;10.95;5.50;;;;;;;;;;4990037;28;20394;-82
2024/01/09 05:55:04;;;;;;;11.10;7.38;;;;;;;;;;4990094;28;20045;-82
2024/01/09 05:57:30;;;;;;;15.18;5.07;;;0.10;99.90;;;;;;4989760;28;20018;-82
2024/01/09 05:59:57;;;;;;;11.23;4.47;;;;;;;;;;4984426;28;20038;-82
2024/01/09 06:02:23;;;;;;;5.43;3.10;;;0.00;98.90;;;;;;4983564;28;20034;-82
2024/01/09 06:04:49;;;;;;;3.75;2.92;;;;;;;;;;4989171;28;20524;-82
2024/01/09 06:07:17;;;;;;;5.68;4.53;;;0.00;92.50;;;;;;4989619;28;20110;-81
2024/01/09 06:09:43;;;;;;;5.85;3.72;;;;;;;;;;4989901;28;20398;-81
2024/01/09 06:12:08;;;;;;;11.32;5.13;;;0.10;99.90;;;;;;4989794;28;20111;-81
2024/01/09 06:14:34;;;;;;;5.68;5.15;;;;;;;;;;4990108;28;20026;-81
2024/01/09 06:17:00;;;;;;;5.78;4.18;;;;;;;;;;4989467;28;20030;-81
2024/01/09 06:19:26;;;;;;;8.10;3.67;;;;;;;;;;4989906;28;20071;-82
2024/01/09 06:21:52;;;;;;;5.32;3.55;;;;;;;;;;4989587;28;20038;-81
2024/01/09 06:24:18;;;;;;;3.78;3.40;;;;;;;;;;4989344;28;20054;-82
2024/01/09 06:26:44;;;;;;;15.10;6.55;;;;;;;;;;4990053;28;20447;-82
2024/01/09 06:29:10;;;;;;;4.80;3.45;;;;;;;;;;4989218;28;20034;-81
2024/01/09 06:31:37;;;;;;;10.68;4.88;;;;;;;;;;4985479;28;20100;-81
2024/01/09 06:34:03;;;;;;;8.55;4.20;;;;;;;;;;4987388;28;20380;-82
2024/01/09 06:36:29;;;;;;;11.25;5.05;;;;;;;;;;4988123;28;20041;-82
2024/01/09 06:38:55;;;;;;;8.35;5.10;;;;;;;;;;4985242;28;20030;-82
2024/01/09 06:41:21;;;;;;;8.52;4.35;;;;;;;;;;4987447;28;20043;-82
2024/01/09 06:43:47;;;;;;;6.38;5.05;;;;;;;;;;4986071;28;20030;-81
2024/01/09 06:46:13;;;;;;;11.02;5.57;;;;;;;;;;4990174;28;20035;-79
2024/01/09 06:48:39;;;;;;;8.48;5.82;;;;;;;;;;4987350;28;20053;-76
2024/01/09 06:51:05;;;;;;;7.45;4.47;;;;;;;;;;4986972;28;20499;-77
2024/01/09 06:53:31;;;;;;;7.65;4.05;;;;;;;;;;4981799;28;20026;-77
2024/01/09 06:55:57;;;;;;;5.75;2.92;;;;;;;;;;4988063;28;20873;-76
2024/01/09 06:58:23;;;;;;;5.80;4.32;;;;;;;;;;4990045;28;20027;-77
2024/01/09 07:00:49;;;;;;;7.05;4.38;;;0.00;98.00;;;;;;4989488;28;20027;-76
2024/01/09 07:03:15;;;;;;;13.63;6.50;;;;;;;;;;4990738;28;20034;-76
2024/01/09 07:05:41;;;;;;;6.95;4.50;;;;;;;;;;4991059;28;20038;-76
2024/01/09 07:08:07;;;;;;;3.88;3.00;;;;;;;;;;4987688;28;20073;-77
2024/01/09 07:10:34;;;;;;;5.10;3.85;;;;;;;;;;4990184;28;20038;-76
2024/01/09 07:13:00;;;;;;;5.90;3.95;;;;;;;;;;4990400;28;20113;-77
2024/01/09 07:15:26;;;;;;;7.88;4.65;;;;;;;;;;4990515;28;20166;-78
2024/01/09 07:17:52;;;;;;;9.20;3.63;;;;;;;;;;4991415;28;20535;-79
2024/01/09 07:20:18;;;;;;;8.80;4.22;;;;;;;;;;4990166;28;20038;-79
2024/01/09 07:22:44;;;;;;;7.38;4.20;;;0.10;99.90;;;;;;4990941;28;20025;-79
2024/01/09 07:25:10;;;;;;;6.20;4.03;;;;;;;;;;4989996;28;20026;-79
2024/01/09 07:27:36;;;;;;;7.82;4.60;;;;;;;;;;4987173;28;20037;-77
2024/01/09 07:30:03;;;;;;;6.22;4.13;;;;;;;;;;4991246;28;20034;-77
2024/01/09 07:32:29;;;;;;;6.20;4.63;;;;;;;;;;4991568;28;20045;-76
2024/01/09 07:34:54;;;;;;;9.25;3.35;;;0.10;99.90;;;;;;4988610;28;20580;-77
2024/01/09 07:37:20;;;;;;;9.30;5.53;;;;;;;;;;4987310;28;20283;-77
2024/01/09 07:39:48;;;;;;;6.43;4.88;;;;;;;;;;4991767;28;20026;-91
2024/01/09 07:42:13;;;;;;;10.10;4.85;;;0.00;99.90;;;;;;4997307;28;20086;-88
2024/01/09 07:44:40;;;;;;;7.45;3.47;;;;;;;;;;4991623;28;20164;-88
2024/01/09 07:47:11;;;;;;;12.02;6.28;;;;;;;;;;4992326;28;20022;-88
2024/01/09 07:49:37;;;;;;;16.02;6.25;;;;;;;;;;4991763;28;20057;-89
2024/01/09 07:52:03;;;;;;;4.53;3.22;;;0.10;98.70;;;;;;4988432;28;20102;-88
2024/01/09 07:54:29;;;;;;;10.18;4.75;;;;;;;;;;4986490;28;20130;-79
2024/01/09 07:56:56;;;;;;;12.50;5.88;;;;;;;;;;4989595;28;20116;-78
2024/01/09 07:59:22;;;;;;;13.90;7.30;;;;;;;;;;4991201;28;20055;-78
2024/01/09 08:01:56;;;;;;;7.45;5.38;;;;;;;;;;4988542;28;20125;-77
2024/01/09 08:04:22;;;;;;;5.35;4.82;;;;;;;;;;4990705;28;20022;-79
2024/01/09 08:06:52;;;;;;;7.45;5.05;;;;;;;;;;4986209;28;20022;-83
2024/01/09 08:09:18;;;;;;;9.48;5.60;;;;;;;;;;4991031;28;20504;-80
2024/01/09 08:11:47;;;;;;;4.85;3.65;;;0.50;99.90;;;;;;4989061;28;20081;-83
2024/01/09 08:14:13;;;;;;;12.48;5.13;;;;;;;;;;4990616;28;20066;-82
2024/01/09 08:16:42;;;;;;;4.82;4.32;;;;;;;;;;4990743;28;20076;-84
2024/01/09 08:19:09;;;;;;;4.82;3.33;;;0.70;99.90;;;;;;4990611;28;20033;-82
2024/01/09 08:21:35;;;;;;;20.25;6.00;;;;;;;;;;4990970;28;20030;-83
2024/01/09 08:24:02;;;;;;;9.83;4.33;;;;;;;;;;4990650;28;20042;-82
2024/01/09 08:26:28;;;;;;;6.23;3.87;;;;;;;;;;4990709;28;20037;-83
2024/01/09 08:28:54;;;;;;;5.72;2.85;;;;;;;;;;4989024;28;20424;-82
2024/01/09 08:31:20;;;;;;;5.75;3.83;;;;;;;;;;4990141;28;20030;-82
2024/01/09 08:33:47;;;;;;;3.72;3.00;;;;;;;;;;4990264;28;20022;-83
2024/01/09 08:36:14;;;;;;;10.00;3.75;;;;;;;;;;4990142;28;20045;-82
2024/01/09 08:38:40;;;;;;;13.82;5.50;;;0.90;99.90;;;;;;4990472;28;20030;-83
2024/01/09 08:41:06;;;;;;;7.63;3.60;;;;;;;;;;4989930;28;20113;-83
2024/01/09 08:43:32;;;;;;;11.82;5.57;;;;;;;;;;4990030;28;20410;-83
2024/01/09 08:45:58;;;;;;;7.32;4.40;;;;;;;;;;4989629;28;20082;-83
2024/01/09 08:48:24;;;;;;;7.85;3.92;;;;;;;;;;4989287;28;20022;-79
2024/01/09 08:50:50;;;;;;;6.15;3.35;;;;;;;;;;4986720;28;20080;-79
2024/01/09 08:53:15;;;;;;;10.23;5.40;;;0.90;99.90;;;;;;4988321;28;20021;-79
2024/01/09 08:55:41;;;;;;;7.32;5.15;;;;;;;;;;4990115;28;20038;-81
2024/01/09 08:58:08;;;;;;;8.02;3.45;;;;;;;;;;4977570;28;20026;-82
2024/01/09 09:00:34;;;;;;;10.18;4.05;;;;;;;;;;4989289;28;20034;-80
2024/01/09 09:03:00;;;;;;;8.45;4.47;;;;;;;;;;4988206;28;20069;-81
2024/01/09 09:05:26;;;;;;;14.07;4.43;;;;;;;;;;4988159;28;20018;-82
2024/01/09 09:07:53;;;;;;;12.70;4.55;;;;;;;;;;4977104;28;20418;-82
2024/01/09 09:10:19;;;;;;;9.95;4.45;;;;;;;;;;4985920;28;20034;-82
2024/01/09 09:12:45;;;;;;;16.83;5.60;;;;;;;;;;4988256;28;20541;-82
2024/01/09 09:15:11;;;;;;;12.15;6.47;;;;;;;;;;4989849;28;20161;-81
2024/01/09 09:17:37;;;;;;;18.45;5.15;;;;;;;;;;4990228;28;20368;-81
2024/01/09 09:20:05;;;;;;;9.50;4.88;;;;;;;;;;4989255;28;20037;-79
2024/01/09 09:22:32;;;;;;;10.07;5.20;;;;;;;;;;4988427;28;20041;-82
2024/01/09 09:24:58;;;;;;;7.13;3.08;;;1.80;99.40;;;;;;4989413;28;20179;-81
2024/01/09 09:27:24;;;;;;;6.88;4.53;;;;;;;;;;4988864;28;20077;-81
2024/01/09 09:29:52;;;;;;;8.77;4.18;;;;;;;;;;4988789;28;20713;-82
2024/01/09 09:32:18;;;;;;;9.27;4.38;;;2.30;98.10;;;;;;4989327;28;20026;-81
2024/01/09 09:34:44;;;;;;;16.20;4.95;;;;;;;;;;4986666;28;20166;-81
2024/01/09 09:37:11;;;;;;;11.52;6.40;;;;;;;;;;4988225;28;20037;-81
2024/01/09 09:39:37;;;;;;;8.10;4.47;;;;;;;;;;4989324;28;20034;-81
2024/01/09 09:42:03;;;;;;;7.55;4.03;;;;;;;;;;4989361;28;20030;-82
2024/01/09 09:44:29;;;;;;;8.70;4.18;;;;;;;;;;4988932;28;20026;-84
2024/01/09 09:46:58;;;;;;;7.55;4.40;;;3.60;79.50;;;;;;4989441;28;20030;-81
2024/01/09 09:49:24;;;;;;;13.07;6.03;;;3.20;93.90;;;;;;4988295;28;20109;-80
2024/01/09 09:51:54;;;;;;;14.40;4.85;;;3.30;74.30;;;;;;4987401;28;20496;-81
2024/01/09 09:54:22;;;;;;;8.80;5.97;;;;;;;;;;4988594;28;20480;-80
2024/01/09 09:56:48;;;;;;;12.57;5.90;;;;;;;;;;4975788;28;20062;-84
2024/01/09 09:59:15;;;;;;;11.05;5.07;;;;;;;;;;4987820;28;20033;-82
2024/01/09 10:01:42;;;;;;;7.85;4.00;;;0.40;73.00;;;;;;4988697;28;20022;-81
2024/01/09 10:04:16;;;;;;;13.20;4.53;;;3.10;77.60;;;;;;4988306;28;20038;-82
2024/01/09 10:06:45;;;;;;;11.35;5.18;;;3.00;75.50;;;;;;4980399;28;20030;-83
2024/01/09 10:09:14;;;;;;;10.23;4.53;;;3.00;74.00;;;;;;4988264;28;20046;-82
2024/01/09 10:11:40;;;;;;;12.07;5.63;;;;;;;;;;4987631;28;20542;-82
2024/01/09 10:14:08;;;;;;;7.47;3.90;;;3.40;74.90;;;;;;4987656;28;20035;-82
2024/01/09 10:16:50;;;;;;;7.00;4.93;;;2.90;77.80;;;;;;4988556;28;20027;-82
2024/01/09 10:19:16;;;;;;;11.82;5.95;;;;;;;;;;4982878;28;20049;-81
2024/01/09 10:21:42;;;;;;;13.68;5.38;;;;;;;;;;4983296;28;20460;-81
2024/01/09 10:24:08;;;;;;;8.15;3.65;;;3.10;93.50;;;;;;4991594;28;20058;-81
2024/01/09 10:26:34;;;;;;;5.65;4.18;;;;;;;;;;4990777;28;20037;-80
2024/01/09 10:29:01;;;;;;;12.73;6.90;;;3.10;92.70;;;;;;4991295;28;20499;-79
2024/01/09 10:31:29;;;;;;;8.95;3.95;;;;;;;;;;4991561;28;20037;-78
2024/01/09 10:33:55;;;;;;;8.75;3.83;;;;;;;;;;4991274;28;20022;-78
2024/01/09 10:36:22;;;;;;;9.60;4.68;;;;;;;;;;4987302;28;20038;-78
2024/01/09 10:38:48;;;;;;;9.03;4.50;;;;;;;;;;4991165;28;20139;-78
2024/01/09 10:41:19;;;;;;;12.68;5.50;;;3.90;72.90;;;;;;4991280;28;20284;-79
2024/01/09 10:43:45;;;;;;;14.75;5.15;;;;;;;;;;4991698;28;20022;-78
2024/01/09 10:46:11;;;;;;;9.40;3.90;;;;;;;;;;4991156;28;20383;-77
2024/01/09 10:48:38;;;;;;;6.80;3.70;;;;;;;;;;4989487;28;20458;-78
2024/01/09 10:51:04;;;;;;;14.38;4.72;;;3.80;75.70;;;;;;4990749;28;20053;-77
2024/01/09 10:53:34;;;;;;;10.63;5.50;;;3.90;71.20;;;;;;4991709;28;20160;-86
2024/01/09 10:56:02;;;;;;;11.40;3.90;;;;;;;;;;4991468;28;20029;-83
2024/01/09 10:58:28;;;;;;;11.82;4.57;;;;;;;;;;4991967;28;20057;-83
2024/01/09 11:00:54;;;;;;;12.43;5.93;;;;;;;;;;4991549;28;20548;-82
2024/01/09 11:03:20;;;;;;;7.13;3.35;;;;;;;;;;4992103;28;20376;-81
2024/01/09 11:05:49;;;;;;;10.48;5.30;;;5.80;78.50;;;;;;4989810;28;20415;-82
2024/01/09 11:08:19;;;;;;;8.52;3.95;;;6.00;89.00;;;;;;4985251;28;20022;-84
2024/01/09 11:10:45;;;;;;;5.30;3.83;;;6.00;78.00;;;;;;4988910;28;20392;-83
2024/01/09 11:13:12;;;;;;;9.02;4.20;;;;;;;;;;4991150;28;20057;-81
2024/01/09 11:15:46;;;;;;;12.73;4.87;;;5.60;64.20;;;;;;4991557;28;20037;-84
2024/01/09 11:18:16;;;;;;;8.20;4.07;;;5.70;65.80;;;;;;4991294;28;20077;-83
2024/01/09 11:20:42;;;;;;;8.68;4.13;;;;;;;;;;4991597;28;20494;-83
2024/01/09 11:23:10;;;;;;;14.23;4.50;;;4.90;61.60;;;;;;4996513;28;20034;-83
2024/01/09 11:25:36;;;;;;;8.38;4.63;;;;;;;;;;4990989;28;20105;-83
2024/01/09 11:28:03;;;;;;;8.65;3.65;;;;;;;;;;4991808;28;20157;-83
2024/01/09 11:30:30;;;;;;;9.38;4.53;;;4.20;63.90;;;;;;4990295;28;20080;-83
2024/01/09 11:32:58;;;;;;;8.20;3.63;;;;;;;;;;4990977;28;20113;-83
2024/01/09 11:35:25;;;;;;;;;;;3.60;63.20;;;;;;4982287;28;20022;-80
2024/01/09 11:37:52;;;;;;;16.27;5.20;;;;;;;;;;4990467;28;19968;-85
2024/01/09 11:40:24;;;;;;;14.00;4.78;;;;;;;;;;4989527;28;20061;-84
2024/01/09 11:42:51;;;;;;;9.27;3.05;;;3.50;63.50;;;;;;4990075;28;20517;-84
2024/01/09 11:45:23;;;;;;;;;;;3.40;65.40;;;;;;4990928;28;20027;-81
2024/01/09 11:47:50;;;;;;;6.55;4.35;;;;;;;;;;4990250;28;19969;-82
2024/01/09 11:50:16;;;;;;;8.57;4.13;;;;;;;;;;4988611;28;20498;-81
2024/01/09 11:52:43;;;;;;;14.57;4.07;;;;;;;;;;4990037;28;20111;-81
2024/01/09 11:55:10;;;;;;;4.85;3.92;;;;;;;;;;4990250;28;20466;-81
2024/01/09 11:57:36;;;;;;;9.55;4.88;;;;;;;;;;4989551;28;20062;-81
2024/01/09 12:00:03;;;;;;;5.05;3.28;;;;;;;;;;4989969;28;20411;-81
2024/01/09 12:02:29;;;;;;;;;;;;;;;;;;4990823;28;20057;-81
2024/01/09 12:04:55;;;;;;;7.18;3.47;;;;;;;;;;4989359;28;19933;-79
2024/01/09 12:07:21;;;;;;;6.97;5.00;;;3.10;92.10;;;;;;4989918;28;20513;-79
2024/01/09 12:09:51;;;;;;;5.90;4.05;;;;;;;;;;4989999;28;20089;-81
2024/01/09 12:12:21;;;;;;;9.80;4.65;;;;;;;;;;4988663;28;20050;-81
2024/01/09 12:14:54;;;;;;;7.40;3.50;;;3.00;66.90;;;;;;4978860;28;20026;-85
2024/01/09 12:17:22;;;;;;;7.68;4.43;;;;;;;;;;4990178;28;20429;-82
2024/01/09 12:19:51;;;;;;;5.53;3.40;;;2.90;90.20;;;;;;4989572;28;20065;-82
2024/01/09 12:22:17;;;;;;;11.00;4.47;;;;;;;;;;4988907;28;20018;-81
2024/01/09 12:24:43;;;;;;;5.90;3.65;;;2.80;70.70;;;;;;4990015;28;20129;-81
2024/01/09 12:27:09;;;;;;;12.95;4.20;;;;;;;;;;4989893;28;20114;-81
2024/01/09 12:29:35;;;;;;;6.85;4.25;;;;;;;;;;4989716;28;20077;-80
2024/01/09 12:32:01;;;;;;;8.20;3.70;;;3.00;68.20;;;;;;4989587;28;20030;-81
2024/01/09 12:34:27;;;;;;;9.18;4.63;;;;;;;;;;4988762;28;20026;-81
2024/01/09 12:36:53;;;;;;;7.35;3.90;;;3.00;91.70;;;;;;4990172;28;20014;-81
2024/01/09 12:39:19;;;;;;;12.68;4.65;;;;;;;;;;4989093;28;20037;-82
2024/01/09 12:41:47;;;;;;;9.13;4.00;;;;;;;;;;4988120;28;20435;-82
2024/01/09 12:44:13;;;;;;;;;;;;;;;;;;4988650;28;20054;-78
2024/01/09 12:46:44;;;;;;;9.43;4.70;;;2.50;68.00;;;;;;4988806;28;20314;-84
2024/01/09 12:49:11;;;;;;;14.70;4.00;;;2.50;68.00;;;;;;4989045;28;20033;-80
2024/01/09 12:51:37;;;;;;;13.18;5.13;;;;;;;;;;4989086;28;20407;-83
2024/01/09 12:54:03;;;;;;;10.10;4.63;;;;;;;;;;4981884;28;20022;-78
2024/01/09 12:56:29;;;;;;;11.88;5.18;;;;;;;;;;4987856;28;20135;-78
2024/01/09 12:58:55;;;;;;;10.70;4.43;;;;;;;;;;4989366;28;20026;-82
2024/01/09 13:01:25;;;;;;;11.88;4.25;;;;;;;;;;4985361;28;20014;-80
2024/01/09 13:03:51;;;;;;;10.98;5.20;;;;;;;;;;4979155;28;20034;-80
2024/01/09 13:06:17;;;;;;;10.48;4.47;;;;;;;;;;4989177;28;20023;-81
2024/01/09 13:08:44;;;;;;;7.57;3.95;;;;;;;;;;4989033;28;20833;-77
2024/01/09 13:11:10;;;;;;;9.23;5.00;;;;;;;;;;4987602;28;20089;-77
2024/01/09 13:13:36;;;;;;;13.52;4.22;;;3.00;91.70;;;;;;4988868;28;20108;-76
2024/01/09 13:16:03;;;;;;;10.00;4.72;;;;;;;;;;4988207;28;20034;-79
2024/01/09 13:18:29;;;;;;;7.03;3.40;;;;;;;;;;4988513;28;20019;-79
2024/01/09 13:20:55;;;;;;;10.07;3.92;;;;;;;;;;4988615;28;20335;-78
2024/01/09 13:23:22;;;;;;;7.88;4.30;;;3.20;71.70;;;;;;4989014;28;20035;-80
2024/01/09 13:25:49;;;;;;;9.65;4.43;;;;;;;;;;4988710;28;20034;-78
2024/01/09 13:28:16;;;;;;;11.30;4.63;;;;;;;;;;4989265;28;20121;-80
2024/01/09 13:30:42;;;;;;;19.97;4.43;;;3.20;91.50;;;;;;4986663;28;20501;-80
2024/01/09 13:33:09;;;;;;;6.75;4.75;;;;;;;;;;4988590;28;20031;-78
2024/01/09 13:35:36;;;;;;;15.68;6.13;;;;;;;;;;4987682;28;20569;-80
2024/01/09 13:38:05;;;;;;;9.20;4.43;;;;;;;;;;4988400;28;20031;-79
2024/01/09 13:40:31;;;;;;;13.73;4.07;;;;;;;;;;4988680;28;20815;-80
2024/01/09 13:42:57;;;;;;;9.40;4.97;;;;;;;;;;4988988;28;20458;-80
2024/01/09 13:45:23;;;;;;;14.52;6.38;;;3.10;75.20;;;;;;4988568;28;20262;-79
2024/01/09 13:47:50;;;;;;;12.88;4.88;;;;;;;;;;4988074;28;20419;-77
2024/01/09 13:50:16;;;;;;;7.22;3.45;;;;;;;;;;4988490;28;20031;-78
2024/01/09 13:52:42;;;;;;;9.10;5.80;;;;;;;;;;4988816;28;20470;-79
2024/01/09 13:55:10;;;;;;;17.08;5.13;;;3.20;91.90;;;;;;4989475;28;20088;-81
2024/01/09 13:57:36;;;;;;;9.50;4.72;;;;;;;;;;4992080;28;20117;-80
2024/01/09 14:00:07;;;;;;;11.18;5.65;;;;;;;;;;4992307;28;20031;-80
2024/01/09 14:02:33;;;;;;;11.48;5.25;;;;;;;;;;4992282;28;20030;-81
2024/01/09 14:04:59;;;;;;;5.25;3.33;;;;;;;;;;4992128;28;20121;-80
2024/01/09 14:07:25;;;;;;;13.52;6.18;;;;;;;;;;4992489;28;20023;-80